sensor_id;sensor_type;location;lat;lon;timestamp;pressure;altitude;pressure_sealevel;temperature;humidity
42169;BME280;27838;43.858;25.974;2023-07-16T00:01:17;101122.16;;;29.25;42.69
42169;BME280;27838;43.858;25.974;2023-07-16T00:03:44;101114.59;;;29.30;42.69
42169;BME280;27838;43.858;25.974;2023-07-16T00:06:10;101108.44;;;29.17;42.73
42169;BME280;27838;43.858;25.974;2023-07-16T00:08:37;101123.00;;;29.26;42.58
42169;BME280;27838;43.858;25.974;2023-07-16T00:11:03;101116.66;;;29.27;42.54
42169;BME280;27838;43.858;25.974;2023-07-16T00:13:30;101125.31;;;29.30;42.08
42169;BME280;27838;43.858;25.974;2023-07-16T00:15:56;101119.84;;;29.32;42.19
42169;BME280;27838;43.858;25.974;2023-07-16T00:18:23;101122.31;;;29.35;42.30
42169;BME280;27838;43.858;25.974;2023-07-16T00:20:49;101115.00;;;29.37;42.14
42169;BME280;27838;43.858;25.974;2023-07-16T00:23:16;101113.31;;;29.36;42.10
42169;BME280;27838;43.858;25.974;2023-07-16T00:25:42;101116.72;;;29.38;41.93
42169;BME280;27838;43.858;25.974;2023-07-16T00:28:09;101111.06;;;29.30;41.98
42169;BME280;27838;43.858;25.974;2023-07-16T00:30:37;101111.63;;;29.22;42.12
42169;BME280;27838;43.858;25.974;2023-07-16T00:33:03;101105.28;;;29.23;42.45
42169;BME280;27838;43.858;25.974;2023-07-16T00:35:30;101109.91;;;29.21;42.27
42169;BME280;27838;43.858;25.974;2023-07-16T00:37:56;101101.13;;;29.19;42.42
42169;BME280;27838;43.858;25.974;2023-07-16T00:40:23;101099.16;;;29.21;42.22
42169;BME280;27838;43.858;25.974;2023-07-16T00:42:49;101106.06;;;29.25;42.32
42169;BME280;27838;43.858;25.974;2023-07-16T00:45:16;101098.00;;;29.25;42.24
42169;BME280;27838;43.858;25.974;2023-07-16T00:47:43;101098.22;;;29.22;42.13
42169;BME280;27838;43.858;25.974;2023-07-16T00:50:11;101081.03;;;29.12;42.16
42169;BME280;27838;43.858;25.974;2023-07-16T00:52:38;101079.53;;;29.08;42.19
42169;BME280;27838;43.858;25.974;2023-07-16T00:55:06;101091.97;;;29.09;42.25
42169;BME280;27838;43.858;25.974;2023-07-16T00:57:33;101085.25;;;29.03;42.63
42169;BME280;27838;43.858;25.974;2023-07-16T01:00:00;101084.38;;;29.03;42.51
42169;BME280;27838;43.858;25.974;2023-07-16T01:02:26;101085.34;;;29.02;42.55
42169;BME280;27838;43.858;25.974;2023-07-16T01:04:53;101086.94;;;29.04;42.50
42169;BME280;27838;43.858;25.974;2023-07-16T01:07:21;101088.78;;;29.04;42.00
42169;BME280;27838;43.858;25.974;2023-07-16T01:09:50;101086.94;;;29.04;42.19
42169;BME280;27838;43.858;25.974;2023-07-16T01:12:20;101082.34;;;29.06;42.32
42169;BME280;27838;43.858;25.974;2023-07-16T01:14:47;101083.50;;;29.02;42.15
42169;BME280;27838;43.858;25.974;2023-07-16T01:17:14;101090.72;;;29.02;42.35
42169;BME280;27838;43.858;25.974;2023-07-16T01:19:40;101088.88;;;29.02;42.11
42169;BME280;27838;43.858;25.974;2023-07-16T01:30:17;101078.06;;;28.91;42.30
42169;BME280;27838;43.858;25.974;2023-07-16T01:32:46;101081.59;;;28.91;42.16
42169;BME280;27838;43.858;25.974;2023-07-16T01:35:13;101079.66;;;28.93;42.13
42169;BME280;27838;43.858;25.974;2023-07-16T01:37:43;101079.13;;;28.88;41.97
42169;BME280;27838;43.858;25.974;2023-07-16T01:40:09;101080.53;;;28.94;41.86
42169;BME280;27838;43.858;25.974;2023-07-16T01:42:36;101078.38;;;28.86;41.79
42169;BME280;27838;43.858;25.974;2023-07-16T01:45:03;101082.59;;;28.90;41.81
42169;BME280;27838;43.858;25.974;2023-07-16T01:47:54;101081.28;;;28.83;41.61
42169;BME280;27838;43.858;25.974;2023-07-16T01:50:25;101086.25;;;28.76;41.89
42169;BME280;27838;43.858;25.974;2023-07-16T01:52:52;101073.47;;;28.67;41.78
42169;BME280;27838;43.858;25.974;2023-07-16T01:55:18;101085.63;;;28.73;41.83
42169;BME280;27838;43.858;25.974;2023-07-16T01:57:45;101084.31;;;28.78;41.71
42169;BME280;27838;43.858;25.974;2023-07-16T02:00:11;101087.22;;;28.75;41.74
42169;BME280;27838;43.858;25.974;2023-07-16T02:02:39;101087.22;;;28.62;41.76
42169;BME280;27838;43.858;25.974;2023-07-16T02:05:05;101083.56;;;28.63;41.67
42169;BME280;27838;43.858;25.974;2023-07-16T02:07:32;101088.81;;;28.65;41.77
42169;BME280;27838;43.858;25.974;2023-07-16T02:09:58;101093.00;;;28.69;41.72
42169;BME280;27838;43.858;25.974;2023-07-16T02:12:25;101081.63;;;28.66;41.82
42169;BME280;27838;43.858;25.974;2023-07-16T02:14:51;101090.22;;;28.71;41.66
42169;BME280;27838;43.858;25.974;2023-07-16T02:17:18;101085.94;;;28.68;41.24
42169;BME280;27838;43.858;25.974;2023-07-16T02:19:45;101096.34;;;28.73;40.96
42169;BME280;27838;43.858;25.974;2023-07-16T02:22:11;101082.50;;;28.66;41.09
42169;BME280;27838;43.858;25.974;2023-07-16T02:24:38;101100.09;;;28.70;40.84
42169;BME280;27838;43.858;25.974;2023-07-16T02:27:04;101094.28;;;28.63;40.90
42169;BME280;27838;43.858;25.974;2023-07-16T02:29:31;101093.56;;;28.61;40.91
42169;BME280;27838;43.858;25.974;2023-07-16T02:31:58;101089.75;;;28.51;41.12
42169;BME280;27838;43.858;25.974;2023-07-16T02:34:24;101092.53;;;28.50;41.30
42169;BME280;27838;43.858;25.974;2023-07-16T02:36:51;101097.16;;;28.48;41.25
42169;BME280;27838;43.858;25.974;2023-07-16T02:39:17;101088.91;;;28.51;41.34
42169;BME280;27838;43.858;25.974;2023-07-16T02:41:44;101098.78;;;28.50;41.19
42169;BME280;27838;43.858;25.974;2023-07-16T02:44:10;101089.13;;;28.48;41.27
42169;BME280;27838;43.858;25.974;2023-07-16T02:46:37;101094.38;;;28.36;41.53
42169;BME280;27838;43.858;25.974;2023-07-16T02:49:04;101086.34;;;28.36;41.39
42169;BME280;27838;43.858;25.974;2023-07-16T02:51:30;101088.88;;;28.25;41.43
42169;BME280;27838;43.858;25.974;2023-07-16T02:53:57;101088.47;;;28.31;41.71
42169;BME280;27838;43.858;25.974;2023-07-16T02:56:23;101088.03;;;28.37;41.08
42169;BME280;27838;43.858;25.974;2023-07-16T02:58:50;101095.97;;;28.39;41.24
42169;BME280;27838;43.858;25.974;2023-07-16T03:01:16;101095.97;;;28.26;41.52
42169;BME280;27838;43.858;25.974;2023-07-16T03:03:43;101089.53;;;28.29;41.26
42169;BME280;27838;43.858;25.974;2023-07-16T03:06:10;101082.78;;;28.36;41.41
42169;BME280;27838;43.858;25.974;2023-07-16T03:08:36;101096.81;;;28.39;41.31
42169;BME280;27838;43.858;25.974;2023-07-16T03:11:03;101104.63;;;28.17;41.76
42169;BME280;27838;43.858;25.974;2023-07-16T03:13:29;101103.78;;;28.16;41.86
42169;BME280;27838;43.858;25.974;2023-07-16T03:15:56;101107.66;;;28.25;41.72
42169;BME280;27838;43.858;25.974;2023-07-16T03:18:27;101109.38;;;28.26;41.49
42169;BME280;27838;43.858;25.974;2023-07-16T03:20:54;101109.91;;;28.31;41.25
42169;BME280;27838;43.858;25.974;2023-07-16T03:23:21;101110.56;;;28.35;41.44
42169;BME280;27838;43.858;25.974;2023-07-16T03:25:47;101106.69;;;28.39;41.36
42169;BME280;27838;43.858;25.974;2023-07-16T03:28:14;101111.97;;;28.40;41.10
42169;BME280;27838;43.858;25.974;2023-07-16T03:30:45;101111.00;;;28.41;41.33
42169;BME280;27838;43.858;25.974;2023-07-16T03:33:12;101109.28;;;28.28;41.18
42169;BME280;27838;43.858;25.974;2023-07-16T03:35:38;101102.19;;;28.27;41.16
42169;BME280;27838;43.858;25.974;2023-07-16T03:38:05;101108.19;;;28.30;41.18
42169;BME280;27838;43.858;25.974;2023-07-16T03:40:31;101115.06;;;28.34;41.00
42169;BME280;27838;43.858;25.974;2023-07-16T03:42:58;101113.66;;;28.29;41.28
42169;BME280;27838;43.858;25.974;2023-07-16T03:45:24;101114.63;;;28.28;41.12
42169;BME280;27838;43.858;25.974;2023-07-16T03:47:51;101116.34;;;28.29;41.72
42169;BME280;27838;43.858;25.974;2023-07-16T03:50:18;101120.66;;;28.31;41.61
42169;BME280;27838;43.858;25.974;2023-07-16T03:52:44;101122.25;;;28.34;41.76
42169;BME280;27838;43.858;25.974;2023-07-16T03:55:11;101119.34;;;28.37;41.76
42169;BME280;27838;43.858;25.974;2023-07-16T03:57:37;101130.63;;;28.42;41.23
42169;BME280;27838;43.858;25.974;2023-07-16T04:00:04;101126.56;;;28.49;41.38
42169;BME280;27838;43.858;25.974;2023-07-16T04:02:34;101126.25;;;28.54;41.15
42169;BME280;27838;43.858;25.974;2023-07-16T04:05:02;101125.19;;;28.56;41.04
42169;BME280;27838;43.858;25.974;2023-07-16T04:07:28;101128.09;;;28.66;40.85
42169;BME280;27838;43.858;25.974;2023-07-16T04:09:55;101134.66;;;28.75;40.92
42169;BME280;27838;43.858;25.974;2023-07-16T04:12:21;101136.97;;;28.79;41.33
42169;BME280;27838;43.858;25.974;2023-07-16T04:14:48;101139.44;;;28.83;41.01
42169;BME280;27838;43.858;25.974;2023-07-16T04:17:14;101140.00;;;28.88;40.70
42169;BME280;27838;43.858;25.974;2023-07-16T04:19:41;101140.09;;;28.86;41.13
42169;BME280;27838;43.858;25.974;2023-07-16T04:22:07;101137.75;;;28.81;40.69
42169;BME280;27838;43.858;25.974;2023-07-16T04:24:34;101135.72;;;28.85;40.94
42169;BME280;27838;43.858;25.974;2023-07-16T04:27:00;101148.47;;;28.94;40.56
42169;BME280;27838;43.858;25.974;2023-07-16T04:29:27;101142.78;;;28.99;40.21
42169;BME280;27838;43.858;25.974;2023-07-16T04:31:53;101145.97;;;29.04;40.42
42169;BME280;27838;43.858;25.974;2023-07-16T04:34:20;101145.13;;;29.04;40.47
42169;BME280;27838;43.858;25.974;2023-07-16T04:36:46;101141.59;;;29.03;40.55
42169;BME280;27838;43.858;25.974;2023-07-16T04:39:13;101141.91;;;29.11;40.69
42169;BME280;27838;43.858;25.974;2023-07-16T04:41:40;101141.03;;;29.11;40.39
42169;BME280;27838;43.858;25.974;2023-07-16T04:44:06;101142.97;;;29.22;40.18
42169;BME280;27838;43.858;25.974;2023-07-16T04:46:33;101142.53;;;29.28;40.23
42169;BME280;27838;43.858;25.974;2023-07-16T04:49:01;101145.75;;;29.33;40.09
42169;BME280;27838;43.858;25.974;2023-07-16T04:51:27;101148.09;;;29.37;40.07
42169;BME280;27838;43.858;25.974;2023-07-16T04:53:54;101152.16;;;29.43;39.79
42169;BME280;27838;43.858;25.974;2023-07-16T04:56:20;101151.94;;;29.46;39.88
42169;BME280;27838;43.858;25.974;2023-07-16T04:58:47;101154.75;;;29.45;40.22
42169;BME280;27838;43.858;25.974;2023-07-16T05:01:14;101148.75;;;29.41;40.53
42169;BME280;27838;43.858;25.974;2023-07-16T05:03:40;101148.50;;;29.44;40.41
42169;BME280;27838;43.858;25.974;2023-07-16T05:06:07;101151.69;;;29.49;39.99
42169;BME280;27838;43.858;25.974;2023-07-16T05:08:33;101138.63;;;29.45;40.23
42169;BME280;27838;43.858;25.974;2023-07-16T05:11:01;101146.09;;;29.52;40.22
42169;BME280;27838;43.858;25.974;2023-07-16T05:13:28;101156.16;;;29.62;40.31
42169;BME280;27838;43.858;25.974;2023-07-16T05:15:54;101162.94;;;29.67;40.47
42169;BME280;27838;43.858;25.974;2023-07-16T05:18:21;101157.94;;;29.74;40.09
42169;BME280;27838;43.858;25.974;2023-07-16T05:20:48;101157.53;;;29.80;40.29
42169;BME280;27838;43.858;25.974;2023-07-16T05:23:15;101152.56;;;29.87;40.01
42169;BME280;27838;43.858;25.974;2023-07-16T05:25:48;101147.44;;;29.95;39.90
42169;BME280;27838;43.858;25.974;2023-07-16T05:28:19;101154.31;;;29.99;39.94
42169;BME280;27838;43.858;25.974;2023-07-16T05:30:45;101155.06;;;30.01;39.81
42169;BME280;27838;43.858;25.974;2023-07-16T05:33:12;101147.28;;;30.09;39.92
42169;BME280;27838;43.858;25.974;2023-07-16T05:35:39;101154.97;;;30.14;39.80
42169;BME280;27838;43.858;25.974;2023-07-16T05:38:05;101151.63;;;30.23;39.86
42169;BME280;27838;43.858;25.974;2023-07-16T05:40:32;101156.00;;;30.24;39.95
42169;BME280;27838;43.858;25.974;2023-07-16T05:42:59;101157.34;;;30.30;39.88
42169;BME280;27838;43.858;25.974;2023-07-16T05:45:25;101150.91;;;30.33;39.55
42169;BME280;27838;43.858;25.974;2023-07-16T05:47:52;101159.00;;;30.44;39.79
42169;BME280;27838;43.858;25.974;2023-07-16T05:50:18;101161.34;;;30.48;40.05
42169;BME280;27838;43.858;25.974;2023-07-16T05:52:45;101152.22;;;30.51;39.85
42169;BME280;27838;43.858;25.974;2023-07-16T05:55:13;101149.53;;;30.51;39.65
42169;BME280;27838;43.858;25.974;2023-07-16T05:57:39;101153.31;;;30.60;39.81
42169;BME280;27838;43.858;25.974;2023-07-16T06:00:07;101141.47;;;30.62;39.73
42169;BME280;27838;43.858;25.974;2023-07-16T06:02:34;101153.22;;;30.73;39.86
42169;BME280;27838;43.858;25.974;2023-07-16T06:05:00;101151.00;;;30.78;39.66
42169;BME280;27838;43.858;25.974;2023-07-16T06:07:27;101153.81;;;30.87;39.37
42169;BME280;27838;43.858;25.974;2023-07-16T06:09:53;101154.34;;;30.93;39.60
42169;BME280;27838;43.858;25.974;2023-07-16T06:12:20;101148.06;;;30.92;39.66
42169;BME280;27838;43.858;25.974;2023-07-16T06:14:46;101158.13;;;31.01;39.97
42169;BME280;27838;43.858;25.974;2023-07-16T06:17:13;101166.69;;;31.06;43.07
42169;BME280;27838;43.858;25.974;2023-07-16T06:19:39;101159.63;;;31.05;43.10
42169;BME280;27838;43.858;25.974;2023-07-16T06:22:06;101158.63;;;31.06;42.84
42169;BME280;27838;43.858;25.974;2023-07-16T06:24:34;101163.03;;;31.19;42.97
42169;BME280;27838;43.858;25.974;2023-07-16T06:27:01;101153.63;;;31.24;42.37
42169;BME280;27838;43.858;25.974;2023-07-16T06:29:27;101166.44;;;31.32;43.09
42169;BME280;27838;43.858;25.974;2023-07-16T06:31:55;101168.19;;;31.33;43.04
42169;BME280;27838;43.858;25.974;2023-07-16T06:34:23;101165.72;;;31.30;43.71
42169;BME280;27838;43.858;25.974;2023-07-16T06:36:50;101173.56;;;31.33;43.57
42169;BME280;27838;43.858;25.974;2023-07-16T06:39:16;101172.19;;;31.39;42.78
42169;BME280;27838;43.858;25.974;2023-07-16T06:41:43;101161.03;;;31.43;42.94
42169;BME280;27838;43.858;25.974;2023-07-16T06:44:10;101165.00;;;31.51;43.20
42169;BME280;27838;43.858;25.974;2023-07-16T06:46:36;101161.06;;;31.55;43.29
42169;BME280;27838;43.858;25.974;2023-07-16T06:49:05;101167.69;;;31.51;43.57
42169;BME280;27838;43.858;25.974;2023-07-16T06:51:32;101161.50;;;31.49;43.16
42169;BME280;27838;43.858;25.974;2023-07-16T06:53:59;101169.50;;;31.61;43.46
42169;BME280;27838;43.858;25.974;2023-07-16T06:56:25;101163.72;;;31.66;43.56
42169;BME280;27838;43.858;25.974;2023-07-16T06:58:52;101171.91;;;31.76;42.58
42169;BME280;27838;43.858;25.974;2023-07-16T07:01:18;101168.38;;;31.75;43.21
42169;BME280;27838;43.858;25.974;2023-07-16T07:03:45;101166.88;;;31.83;43.69
42169;BME280;27838;43.858;25.974;2023-07-16T07:06:11;101168.31;;;31.87;42.95
42169;BME280;27838;43.858;25.974;2023-07-16T07:08:38;101171.25;;;31.84;42.94
42169;BME280;27838;43.858;25.974;2023-07-16T07:11:04;101166.75;;;31.84;43.49
42169;BME280;27838;43.858;25.974;2023-07-16T07:13:31;101170.75;;;31.90;43.27
42169;BME280;27838;43.858;25.974;2023-07-16T07:15:58;101168.53;;;31.95;43.57
42169;BME280;27838;43.858;25.974;2023-07-16T07:18:24;101168.13;;;31.99;44.43
42169;BME280;27838;43.858;25.974;2023-07-16T07:20:51;101167.28;;;31.99;43.78
42169;BME280;27838;43.858;25.974;2023-07-16T07:23:17;101169.50;;;32.05;42.98
42169;BME280;27838;43.858;25.974;2023-07-16T07:25:51;101172.69;;;32.10;42.83
42169;BME280;27838;43.858;25.974;2023-07-16T07:28:21;101169.66;;;32.25;42.24
42169;BME280;27838;43.858;25.974;2023-07-16T07:30:47;101172.69;;;32.31;42.66
42169;BME280;27838;43.858;25.974;2023-07-16T07:33:14;101174.59;;;32.41;42.68
42169;BME280;27838;43.858;25.974;2023-07-16T07:35:40;101159.72;;;32.46;42.11
42169;BME280;27838;43.858;25.974;2023-07-16T07:38:07;101165.06;;;32.58;41.49
42169;BME280;27838;43.858;25.974;2023-07-16T07:40:34;101158.16;;;32.65;41.25
42169;BME280;27838;43.858;25.974;2023-07-16T07:43:00;101160.59;;;32.68;41.02
42169;BME280;27838;43.858;25.974;2023-07-16T07:45:27;101158.06;;;32.76;41.24
42169;BME280;27838;43.858;25.974;2023-07-16T07:47:53;101158.41;;;32.83;40.93
42169;BME280;27838;43.858;25.974;2023-07-16T07:50:20;101156.16;;;32.88;40.62
42169;BME280;27838;43.858;25.974;2023-07-16T07:52:46;101158.03;;;32.97;40.24
42169;BME280;27838;43.858;25.974;2023-07-16T07:55:13;101150.38;;;33.02;40.42
42169;BME280;27838;43.858;25.974;2023-07-16T07:57:39;101151.41;;;33.11;40.44
42169;BME280;27838;43.858;25.974;2023-07-16T08:00:06;101152.75;;;33.17;40.33
42169;BME280;27838;43.858;25.974;2023-07-16T08:02:36;101149.63;;;33.21;39.72
42169;BME280;27838;43.858;25.974;2023-07-16T08:05:03;101151.78;;;33.27;39.29
42169;BME280;27838;43.858;25.974;2023-07-16T08:07:30;101149.53;;;33.33;39.28
42169;BME280;27838;43.858;25.974;2023-07-16T08:09:56;101146.41;;;33.37;39.57
42169;BME280;27838;43.858;25.974;2023-07-16T08:12:23;101144.13;;;33.42;39.43
42169;BME280;27838;43.858;25.974;2023-07-16T08:14:49;101151.56;;;33.50;38.55
42169;BME280;27838;43.858;25.974;2023-07-16T08:17:16;101151.00;;;33.56;37.98
42169;BME280;27838;43.858;25.974;2023-07-16T08:19:42;101143.47;;;33.60;37.61
42169;BME280;27838;43.858;25.974;2023-07-16T08:22:09;101127.38;;;33.58;37.93
42169;BME280;27838;43.858;25.974;2023-07-16T08:24:36;101134.53;;;33.69;37.67
42169;BME280;27838;43.858;25.974;2023-07-16T08:27:03;101148.78;;;33.81;37.36
42169;BME280;27838;43.858;25.974;2023-07-16T08:29:30;101128.59;;;33.85;37.26
42169;BME280;27838;43.858;25.974;2023-07-16T08:31:56;101138.53;;;33.94;36.85
42169;BME280;27838;43.858;25.974;2023-07-16T08:34:23;101142.38;;;34.01;36.75
42169;BME280;27838;43.858;25.974;2023-07-16T08:36:49;101140.81;;;34.09;36.62
42169;BME280;27838;43.858;25.974;2023-07-16T08:39:16;101128.69;;;34.13;36.40
42169;BME280;27838;43.858;25.974;2023-07-16T08:41:44;101137.69;;;34.23;36.24
42169;BME280;27838;43.858;25.974;2023-07-16T08:44:12;101129.00;;;34.29;36.52
42169;BME280;27838;43.858;25.974;2023-07-16T08:46:39;101135.09;;;34.41;36.75
42169;BME280;27838;43.858;25.974;2023-07-16T08:49:07;101133.53;;;34.38;36.46
42169;BME280;27838;43.858;25.974;2023-07-16T08:51:34;101120.47;;;34.34;36.22
42169;BME280;27838;43.858;25.974;2023-07-16T08:54:01;101128.25;;;34.47;35.87
42169;BME280;27838;43.858;25.974;2023-07-16T08:56:28;101130.75;;;34.58;36.02
42169;BME280;27838;43.858;25.974;2023-07-16T08:58:55;101132.59;;;34.67;35.73
42169;BME280;27838;43.858;25.974;2023-07-16T09:01:22;101136.59;;;34.73;35.76
42169;BME280;27838;43.858;25.974;2023-07-16T09:03:48;101127.91;;;34.69;36.64
42169;BME280;27838;43.858;25.974;2023-07-16T09:06:15;101129.75;;;34.69;35.95
42169;BME280;27838;43.858;25.974;2023-07-16T09:08:42;101115.63;;;34.65;35.47
42169;BME280;27838;43.858;25.974;2023-07-16T09:11:12;101119.09;;;34.57;35.98
42169;BME280;27838;43.858;25.974;2023-07-16T09:13:44;101120.22;;;34.65;36.45
42169;BME280;27838;43.858;25.974;2023-07-16T09:16:11;101124.94;;;34.72;36.17
42169;BME280;27838;43.858;25.974;2023-07-16T09:18:39;101110.38;;;34.73;35.85
42169;BME280;27838;43.858;25.974;2023-07-16T09:21:06;101122.56;;;34.87;36.01
42169;BME280;27838;43.858;25.974;2023-07-16T09:23:33;101114.72;;;34.94;35.53
42169;BME280;27838;43.858;25.974;2023-07-16T09:26:00;101108.88;;;34.89;34.96
42169;BME280;27838;43.858;25.974;2023-07-16T09:28:30;101112.41;;;34.99;34.79
42169;BME280;27838;43.858;25.974;2023-07-16T09:31:03;101108.63;;;35.10;33.82
42169;BME280;27838;43.858;25.974;2023-07-16T09:33:31;101110.31;;;35.21;33.79
42169;BME280;27838;43.858;25.974;2023-07-16T09:35:58;101112.91;;;35.40;33.44
42169;BME280;27838;43.858;25.974;2023-07-16T09:38:26;101111.28;;;35.47;31.64
42169;BME280;27838;43.858;25.974;2023-07-16T09:40:56;101108.19;;;35.60;31.45
42169;BME280;27838;43.858;25.974;2023-07-16T09:43:23;101113.41;;;35.71;31.85
42169;BME280;27838;43.858;25.974;2023-07-16T09:45:50;101105.19;;;35.81;30.76
42169;BME280;27838;43.858;25.974;2023-07-16T09:48:16;101106.44;;;35.87;30.14
42169;BME280;27838;43.858;25.974;2023-07-16T09:50:50;101106.88;;;36.00;29.65
42169;BME280;27838;43.858;25.974;2023-07-16T09:53:19;101108.34;;;36.13;29.51
42169;BME280;27838;43.858;25.974;2023-07-16T09:55:46;101103.28;;;36.18;28.95
42169;BME280;27838;43.858;25.974;2023-07-16T09:58:14;101104.38;;;36.25;29.32
42169;BME280;27838;43.858;25.974;2023-07-16T10:00:45;101098.50;;;36.29;28.75
42169;BME280;27838;43.858;25.974;2023-07-16T10:03:12;101087.13;;;36.34;29.07
42169;BME280;27838;43.858;25.974;2023-07-16T10:05:40;101095.56;;;36.49;28.75
42169;BME280;27838;43.858;25.974;2023-07-16T10:08:16;101081.47;;;36.54;28.98
42169;BME280;27838;43.858;25.974;2023-07-16T10:10:54;101088.50;;;36.64;28.57
42169;BME280;27838;43.858;25.974;2023-07-16T10:13:23;101086.16;;;36.70;28.38
42169;BME280;27838;43.858;25.974;2023-07-16T10:15:57;101089.59;;;36.72;28.02
42169;BME280;27838;43.858;25.974;2023-07-16T10:18:31;101087.25;;;36.77;28.33
42169;BME280;27838;43.858;25.974;2023-07-16T10:21:04;101088.09;;;36.77;29.47
42169;BME280;27838;43.858;25.974;2023-07-16T10:23:44;101081.28;;;36.73;29.94
42169;BME280;27838;43.858;25.974;2023-07-16T10:26:14;101087.47;;;36.65;29.61
42169;BME280;27838;43.858;25.974;2023-07-16T10:28:41;101081.31;;;36.55;30.84
42169;BME280;27838;43.858;25.974;2023-07-16T10:31:21;101081.16;;;36.57;30.41
42169;BME280;27838;43.858;25.974;2023-07-16T10:34:04;101073.22;;;36.63;30.14
42169;BME280;27838;43.858;25.974;2023-07-16T10:36:37;101069.75;;;36.79;30.63
42169;BME280;27838;43.858;25.974;2023-07-16T10:39:04;101072.00;;;36.92;29.35
42169;BME280;27838;43.858;25.974;2023-07-16T10:41:31;101076.13;;;36.96;28.66
42169;BME280;27838;43.858;25.974;2023-07-16T10:43:58;101074.03;;;36.82;28.57
42169;BME280;27838;43.858;25.974;2023-07-16T10:46:25;101072.22;;;36.64;29.17
42169;BME280;27838;43.858;25.974;2023-07-16T10:48:53;101076.19;;;36.44;29.12
42169;BME280;27838;43.858;25.974;2023-07-16T10:51:25;101072.34;;;36.28;29.97
42169;BME280;27838;43.858;25.974;2023-07-16T10:53:55;101069.28;;;36.23;29.82
42169;BME280;27838;43.858;25.974;2023-07-16T10:56:22;101061.66;;;36.27;29.56
42169;BME280;27838;43.858;25.974;2023-07-16T10:58:49;101056.81;;;36.39;29.72
42169;BME280;27838;43.858;25.974;2023-07-16T11:01:16;101050.78;;;36.53;29.17
42169;BME280;27838;43.858;25.974;2023-07-16T11:03:43;101054.75;;;36.67;29.27
42169;BME280;27838;43.858;25.974;2023-07-16T11:06:10;101046.31;;;36.78;29.40
42169;BME280;27838;43.858;25.974;2023-07-16T11:08:37;101041.97;;;36.85;29.28
42169;BME280;27838;43.858;25.974;2023-07-16T11:11:03;101036.56;;;37.02;28.87
42169;BME280;27838;43.858;25.974;2023-07-16T11:13:33;101043.22;;;37.16;28.72
42169;BME280;27838;43.858;25.974;2023-07-16T11:16:07;101041.22;;;37.26;28.35
42169;BME280;27838;43.858;25.974;2023-07-16T11:18:34;101045.78;;;37.26;27.97
42169;BME280;27838;43.858;25.974;2023-07-16T11:21:01;101043.94;;;37.18;28.08
42169;BME280;27838;43.858;25.974;2023-07-16T11:23:27;101027.06;;;36.98;27.91
42169;BME280;27838;43.858;25.974;2023-07-16T11:25:54;101041.75;;;36.87;27.57
42169;BME280;27838;43.858;25.974;2023-07-16T11:28:20;101030.56;;;36.82;28.22
42169;BME280;27838;43.858;25.974;2023-07-16T11:30:47;101030.91;;;36.79;28.47
42169;BME280;27838;43.858;25.974;2023-07-16T11:33:13;101025.81;;;36.92;28.65
42169;BME280;27838;43.858;25.974;2023-07-16T11:35:41;101034.38;;;37.14;28.19
42169;BME280;27838;43.858;25.974;2023-07-16T11:38:07;101025.78;;;37.35;28.21
42169;BME280;27838;43.858;25.974;2023-07-16T11:40:35;101017.47;;;37.53;27.45
42169;BME280;27838;43.858;25.974;2023-07-16T11:43:11;101020.03;;;37.71;27.11
42169;BME280;27838;43.858;25.974;2023-07-16T11:45:38;101022.25;;;37.84;26.74
42169;BME280;27838;43.858;25.974;2023-07-16T11:48:05;101024.94;;;37.92;25.74
42169;BME280;27838;43.858;25.974;2023-07-16T11:50:31;101022.88;;;38.02;25.65
42169;BME280;27838;43.858;25.974;2023-07-16T11:53:01;101010.63;;;38.14;25.79
42169;BME280;27838;43.858;25.974;2023-07-16T11:55:28;101014.16;;;38.31;25.72
42169;BME280;27838;43.858;25.974;2023-07-16T11:57:54;101019.09;;;38.36;25.63
42169;BME280;27838;43.858;25.974;2023-07-16T12:00:24;101012.25;;;38.40;25.77
42169;BME280;27838;43.858;25.974;2023-07-16T12:02:51;101014.97;;;38.48;26.53
42169;BME280;27838;43.858;25.974;2023-07-16T12:05:19;101014.25;;;38.63;26.04
42169;BME280;27838;43.858;25.974;2023-07-16T12:07:46;101025.28;;;38.69;25.21
42169;BME280;27838;43.858;25.974;2023-07-16T12:10:12;101018.69;;;38.64;25.81
42169;BME280;27838;43.858;25.974;2023-07-16T12:12:39;101018.63;;;38.72;25.40
42169;BME280;27838;43.858;25.974;2023-07-16T12:15:07;101015.50;;;38.83;24.92
42169;BME280;27838;43.858;25.974;2023-07-16T12:17:34;101008.47;;;38.89;24.89
42169;BME280;27838;43.858;25.974;2023-07-16T12:20:01;101010.78;;;39.00;25.57
42169;BME280;27838;43.858;25.974;2023-07-16T12:22:29;101007.03;;;39.01;24.99
42169;BME280;27838;43.858;25.974;2023-07-16T12:24:55;101006.03;;;39.02;24.60
42169;BME280;27838;43.858;25.974;2023-07-16T12:27:22;101006.19;;;39.01;24.86
42169;BME280;27838;43.858;25.974;2023-07-16T12:29:49;101002.44;;;39.02;24.94
42169;BME280;27838;43.858;25.974;2023-07-16T12:32:17;101005.34;;;39.00;25.22
42169;BME280;27838;43.858;25.974;2023-07-16T12:34:45;101001.28;;;39.04;24.99
42169;BME280;27838;43.858;25.974;2023-07-16T12:37:11;100992.03;;;39.05;25.15
42169;BME280;27838;43.858;25.974;2023-07-16T12:39:38;100999.34;;;39.13;25.04
42169;BME280;27838;43.858;25.974;2023-07-16T12:42:05;100999.88;;;39.08;25.09
42169;BME280;27838;43.858;25.974;2023-07-16T12:44:31;100999.03;;;39.08;25.19
42169;BME280;27838;43.858;25.974;2023-07-16T12:46:58;100991.91;;;38.99;24.49
42169;BME280;27838;43.858;25.974;2023-07-16T12:49:24;100997.75;;;38.87;25.19